KDGW/DGW METAR and TAF weather

Enter ICAO airport designator
Station Type Date Time Source
KDGW METAR 2019/10/18 06:53 UTC NOAA

KDGW 180653Z AUTO 27007KT 10SM CLR 11/M06 A2957 RMK AO2 SLP965 T01111056 402391017


Station Type Date Time Source
KDGW Decoded METAR 2019/10/18 06:53 UTC NOAA

DOUGLAS CONVERSE COUNTY, WY, United States (KDGW) 42-48N 105-23W 1499M
Oct 18, 2019 - 02:53 AM EDT / 2019.10.18 0653 UTC
Wind: from the W (270 degrees) at 8 MPH (7 KT):0
Visibility: 10 mile(s):0
Sky conditions: clear
Temperature: 52.0 F (11.1 C)
Dew Point: 21.9 F (-5.6 C)
Relative Humidity: 30%
Pressure (altimeter): 29.57 in. Hg (1001 hPa)
ob: KDGW 180653Z AUTO 27007KT 10SM CLR 11/M06 A2957 RMK AO2 SLP965 T01111056 402391017
cycle: 7

Station Type Date Time Source
KDGW TAF UTC NOAA

Error!

Example: see airport list